sensor_id;sensor_type;location;lat;lon;timestamp;P1;durP1;ratioP1;P2;durP2;ratioP2
19341;SDS011;9807;48.258;12.690;2024-02-23T00:01:48;14.90;;;7.67;;
19341;SDS011;9807;48.258;12.690;2024-02-23T00:04:15;11.47;;;6.57;;
19341;SDS011;9807;48.258;12.690;2024-02-23T00:06:47;8.77;;;5.70;;
19341;SDS011;9807;48.258;12.690;2024-02-23T00:09:13;7.70;;;5.07;;
19341;SDS011;9807;48.258;12.690;2024-02-23T00:11:39;13.40;;;7.73;;
19341;SDS011;9807;48.258;12.690;2024-02-23T00:14:10;14.87;;;8.97;;
19341;SDS011;9807;48.258;12.690;2024-02-23T00:16:39;16.60;;;10.10;;
19341;SDS011;9807;48.258;12.690;2024-02-23T00:19:09;16.33;;;9.93;;
19341;SDS011;9807;48.258;12.690;2024-02-23T00:21:38;25.23;;;10.87;;
19341;SDS011;9807;48.258;12.690;2024-02-23T00:24:07;21.07;;;11.80;;
19341;SDS011;9807;48.258;12.690;2024-02-23T00:26:34;20.60;;;11.27;;
19341;SDS011;9807;48.258;12.690;2024-02-23T00:29:02;17.00;;;9.53;;
19341;SDS011;9807;48.258;12.690;2024-02-23T00:31:28;10.93;;;7.07;;
19341;SDS011;9807;48.258;12.690;2024-02-23T00:33:54;13.80;;;6.10;;
19341;SDS011;9807;48.258;12.690;2024-02-23T00:36:23;7.60;;;3.87;;
19341;SDS011;9807;48.258;12.690;2024-02-23T00:38:48;3.20;;;1.90;;
19341;SDS011;9807;48.258;12.690;2024-02-23T00:41:14;3.37;;;1.43;;
19341;SDS011;9807;48.258;12.690;2024-02-23T00:43:40;1.53;;;1.00;;
19341;SDS011;9807;48.258;12.690;2024-02-23T00:46:07;1.87;;;1.00;;
19341;SDS011;9807;48.258;12.690;2024-02-23T00:48:36;2.00;;;0.80;;
19341;SDS011;9807;48.258;12.690;2024-02-23T00:51:02;4.77;;;0.90;;
19341;SDS011;9807;48.258;12.690;2024-02-23T00:53:32;0.70;;;0.70;;
19341;SDS011;9807;48.258;12.690;2024-02-23T00:56:01;1.43;;;0.60;;
19341;SDS011;9807;48.258;12.690;2024-02-23T00:58:27;3.00;;;0.60;;
19341;SDS011;9807;48.258;12.690;2024-02-23T01:00:53;0.70;;;0.70;;
19341;SDS011;9807;48.258;12.690;2024-02-23T01:03:20;0.50;;;0.50;;
19341;SDS011;9807;48.258;12.690;2024-02-23T01:05:46;0.43;;;0.43;;
19341;SDS011;9807;48.258;12.690;2024-02-23T01:08:14;2.07;;;0.73;;
19341;SDS011;9807;48.258;12.690;2024-02-23T01:10:40;0.60;;;0.60;;
19341;SDS011;9807;48.258;12.690;2024-02-23T01:13:06;1.40;;;0.50;;
19341;SDS011;9807;48.258;12.690;2024-02-23T01:15:31;3.30;;;0.70;;
19341;SDS011;9807;48.258;12.690;2024-02-23T01:17:57;0.83;;;0.60;;
19341;SDS011;9807;48.258;12.690;2024-02-23T01:20:25;0.97;;;0.50;;
19341;SDS011;9807;48.258;12.690;2024-02-23T01:22:51;0.50;;;0.50;;
19341;SDS011;9807;48.258;12.690;2024-02-23T01:25:16;0.73;;;0.40;;
19341;SDS011;9807;48.258;12.690;2024-02-23T01:27:42;0.37;;;0.37;;
19341;SDS011;9807;48.258;12.690;2024-02-23T01:30:09;2.03;;;0.33;;
19341;SDS011;9807;48.258;12.690;2024-02-23T01:32:35;0.77;;;0.40;;
19341;SDS011;9807;48.258;12.690;2024-02-23T01:35:03;0.33;;;0.30;;
19341;SDS011;9807;48.258;12.690;2024-02-23T01:37:33;1.70;;;0.40;;
19341;SDS011;9807;48.258;12.690;2024-02-23T01:40:00;0.40;;;0.40;;
19341;SDS011;9807;48.258;12.690;2024-02-23T01:42:26;0.40;;;0.40;;
19341;SDS011;9807;48.258;12.690;2024-02-23T01:44:52;0.43;;;0.30;;
19341;SDS011;9807;48.258;12.690;2024-02-23T01:47:18;1.80;;;0.50;;
19341;SDS011;9807;48.258;12.690;2024-02-23T01:49:45;0.63;;;0.50;;
19341;SDS011;9807;48.258;12.690;2024-02-23T01:52:12;0.30;;;0.30;;
19341;SDS011;9807;48.258;12.690;2024-02-23T01:54:39;1.70;;;0.30;;
19341;SDS011;9807;48.258;12.690;2024-02-23T01:57:05;1.03;;;0.30;;
19341;SDS011;9807;48.258;12.690;2024-02-23T01:59:35;2.27;;;0.30;;
19341;SDS011;9807;48.258;12.690;2024-02-23T02:02:03;1.33;;;0.20;;
19341;SDS011;9807;48.258;12.690;2024-02-23T02:04:29;0.40;;;0.40;;
19341;SDS011;9807;48.258;12.690;2024-02-23T02:06:55;0.67;;;0.30;;
19341;SDS011;9807;48.258;12.690;2024-02-23T02:09:25;0.20;;;0.20;;
19341;SDS011;9807;48.258;12.690;2024-02-23T02:11:51;0.30;;;0.30;;
19341;SDS011;9807;48.258;12.690;2024-02-23T02:14:17;0.30;;;0.30;;
19341;SDS011;9807;48.258;12.690;2024-02-23T02:16:44;0.97;;;0.30;;
19341;SDS011;9807;48.258;12.690;2024-02-23T02:19:10;0.63;;;0.47;;
19341;SDS011;9807;48.258;12.690;2024-02-23T02:21:37;0.33;;;0.27;;
19341;SDS011;9807;48.258;12.690;2024-02-23T02:24:03;0.30;;;0.30;;
19341;SDS011;9807;48.258;12.690;2024-02-23T02:26:29;0.30;;;0.30;;
19341;SDS011;9807;48.258;12.690;2024-02-23T02:28:55;4.33;;;0.40;;
19341;SDS011;9807;48.258;12.690;2024-02-23T02:31:21;0.50;;;0.30;;
19341;SDS011;9807;48.258;12.690;2024-02-23T02:33:47;1.70;;;0.30;;
19341;SDS011;9807;48.258;12.690;2024-02-23T02:36:12;0.30;;;0.30;;
19341;SDS011;9807;48.258;12.690;2024-02-23T02:38:38;1.23;;;0.20;;
19341;SDS011;9807;48.258;12.690;2024-02-23T02:41:04;0.63;;;0.40;;
19341;SDS011;9807;48.258;12.690;2024-02-23T02:43:30;1.17;;;0.30;;
19341;SDS011;9807;48.258;12.690;2024-02-23T02:45:56;0.63;;;0.40;;
19341;SDS011;9807;48.258;12.690;2024-02-23T02:48:22;2.90;;;0.33;;
19341;SDS011;9807;48.258;12.690;2024-02-23T02:50:48;0.30;;;0.30;;
19341;SDS011;9807;48.258;12.690;2024-02-23T02:53:14;0.30;;;0.30;;
19341;SDS011;9807;48.258;12.690;2024-02-23T02:55:41;0.43;;;0.27;;
19341;SDS011;9807;48.258;12.690;2024-02-23T02:58:08;0.20;;;0.20;;
19341;SDS011;9807;48.258;12.690;2024-02-23T03:00:34;0.57;;;0.30;;
19341;SDS011;9807;48.258;12.690;2024-02-23T03:03:00;0.20;;;0.20;;
19341;SDS011;9807;48.258;12.690;2024-02-23T03:05:26;0.20;;;0.20;;
19341;SDS011;9807;48.258;12.690;2024-02-23T03:07:51;0.63;;;0.30;;
19341;SDS011;9807;48.258;12.690;2024-02-23T03:10:17;0.30;;;0.30;;
19341;SDS011;9807;48.258;12.690;2024-02-23T03:12:43;1.90;;;0.30;;
19341;SDS011;9807;48.258;12.690;2024-02-23T03:15:08;0.80;;;0.23;;
19341;SDS011;9807;48.258;12.690;2024-02-23T03:17:38;0.20;;;0.20;;
19341;SDS011;9807;48.258;12.690;2024-02-23T03:20:05;0.90;;;0.30;;
19341;SDS011;9807;48.258;12.690;2024-02-23T03:22:34;0.20;;;0.20;;
19341;SDS011;9807;48.258;12.690;2024-02-23T03:25:03;0.40;;;0.40;;
19341;SDS011;9807;48.258;12.690;2024-02-23T03:27:34;0.30;;;0.30;;
19341;SDS011;9807;48.258;12.690;2024-02-23T03:30:06;1.30;;;0.30;;
19341;SDS011;9807;48.258;12.690;2024-02-23T03:32:35;0.43;;;0.27;;
19341;SDS011;9807;48.258;12.690;2024-02-23T03:35:04;0.20;;;0.20;;
19341;SDS011;9807;48.258;12.690;2024-02-23T03:37:31;0.30;;;0.30;;
19341;SDS011;9807;48.258;12.690;2024-02-23T03:39:57;0.20;;;0.20;;
19341;SDS011;9807;48.258;12.690;2024-02-23T03:42:24;0.30;;;0.30;;
19341;SDS011;9807;48.258;12.690;2024-02-23T03:44:52;0.30;;;0.30;;
19341;SDS011;9807;48.258;12.690;2024-02-23T03:47:18;0.20;;;0.20;;
19341;SDS011;9807;48.258;12.690;2024-02-23T03:49:44;0.70;;;0.27;;
19341;SDS011;9807;48.258;12.690;2024-02-23T03:52:09;0.40;;;0.20;;
19341;SDS011;9807;48.258;12.690;2024-02-23T03:54:35;0.30;;;0.30;;
19341;SDS011;9807;48.258;12.690;2024-02-23T03:57:00;0.20;;;0.20;;
19341;SDS011;9807;48.258;12.690;2024-02-23T03:59:27;0.93;;;0.30;;
19341;SDS011;9807;48.258;12.690;2024-02-23T04:01:53;0.50;;;0.40;;
19341;SDS011;9807;48.258;12.690;2024-02-23T04:04:19;0.30;;;0.30;;
19341;SDS011;9807;48.258;12.690;2024-02-23T04:06:44;0.20;;;0.20;;
19341;SDS011;9807;48.258;12.690;2024-02-23T04:09:10;0.30;;;0.30;;
19341;SDS011;9807;48.258;12.690;2024-02-23T04:11:36;0.40;;;0.40;;
19341;SDS011;9807;48.258;12.690;2024-02-23T04:14:01;0.30;;;0.30;;
19341;SDS011;9807;48.258;12.690;2024-02-23T04:16:27;0.83;;;0.30;;
19341;SDS011;9807;48.258;12.690;2024-02-23T04:18:53;0.30;;;0.30;;
19341;SDS011;9807;48.258;12.690;2024-02-23T04:21:19;0.30;;;0.30;;
19341;SDS011;9807;48.258;12.690;2024-02-23T04:23:45;0.20;;;0.20;;
19341;SDS011;9807;48.258;12.690;2024-02-23T04:26:11;0.50;;;0.40;;
19341;SDS011;9807;48.258;12.690;2024-02-23T04:28:40;1.70;;;0.40;;
19341;SDS011;9807;48.258;12.690;2024-02-23T04:31:08;1.17;;;0.50;;
19341;SDS011;9807;48.258;12.690;2024-02-23T04:33:35;1.60;;;0.37;;
19341;SDS011;9807;48.258;12.690;2024-02-23T04:36:01;0.30;;;0.30;;
19341;SDS011;9807;48.258;12.690;2024-02-23T04:38:31;0.53;;;0.47;;
19341;SDS011;9807;48.258;12.690;2024-02-23T04:40:57;0.50;;;0.50;;
19341;SDS011;9807;48.258;12.690;2024-02-23T04:43:28;1.00;;;0.80;;
19341;SDS011;9807;48.258;12.690;2024-02-23T04:45:53;0.60;;;0.60;;
19341;SDS011;9807;48.258;12.690;2024-02-23T04:48:19;1.77;;;1.63;;
19341;SDS011;9807;48.258;12.690;2024-02-23T04:50:45;1.70;;;1.20;;
19341;SDS011;9807;48.258;12.690;2024-02-23T04:53:10;1.80;;;1.50;;
19341;SDS011;9807;48.258;12.690;2024-02-23T04:55:37;2.40;;;0.70;;
19341;SDS011;9807;48.258;12.690;2024-02-23T04:58:02;0.47;;;0.47;;
19341;SDS011;9807;48.258;12.690;2024-02-23T05:00:28;0.60;;;0.60;;
19341;SDS011;9807;48.258;12.690;2024-02-23T05:02:59;1.47;;;1.03;;
19341;SDS011;9807;48.258;12.690;2024-02-23T05:05:28;0.60;;;0.47;;
19341;SDS011;9807;48.258;12.690;2024-02-23T05:07:55;2.23;;;0.40;;
19341;SDS011;9807;48.258;12.690;2024-02-23T05:10:20;0.30;;;0.30;;
19341;SDS011;9807;48.258;12.690;2024-02-23T05:12:47;0.77;;;0.40;;
19341;SDS011;9807;48.258;12.690;2024-02-23T05:15:13;1.70;;;0.60;;
19341;SDS011;9807;48.258;12.690;2024-02-23T05:17:39;0.40;;;0.40;;
19341;SDS011;9807;48.258;12.690;2024-02-23T05:20:05;1.07;;;0.50;;
19341;SDS011;9807;48.258;12.690;2024-02-23T05:22:33;0.50;;;0.43;;
19341;SDS011;9807;48.258;12.690;2024-02-23T05:25:02;0.50;;;0.50;;
19341;SDS011;9807;48.258;12.690;2024-02-23T05:27:29;0.63;;;0.40;;
19341;SDS011;9807;48.258;12.690;2024-02-23T05:29:56;0.47;;;0.40;;
19341;SDS011;9807;48.258;12.690;2024-02-23T05:32:21;0.37;;;0.30;;
19341;SDS011;9807;48.258;12.690;2024-02-23T05:34:47;0.30;;;0.30;;
19341;SDS011;9807;48.258;12.690;2024-02-23T05:37:16;0.30;;;0.30;;
19341;SDS011;9807;48.258;12.690;2024-02-23T05:39:42;0.67;;;0.43;;
19341;SDS011;9807;48.258;12.690;2024-02-23T05:42:10;0.83;;;0.40;;
19341;SDS011;9807;48.258;12.690;2024-02-23T05:44:35;1.63;;;0.50;;
19341;SDS011;9807;48.258;12.690;2024-02-23T05:47:04;0.60;;;0.60;;
19341;SDS011;9807;48.258;12.690;2024-02-23T05:49:30;0.40;;;0.40;;
19341;SDS011;9807;48.258;12.690;2024-02-23T05:51:56;3.50;;;1.40;;
19341;SDS011;9807;48.258;12.690;2024-02-23T05:54:22;1.73;;;1.30;;
19341;SDS011;9807;48.258;12.690;2024-02-23T05:56:47;2.20;;;1.87;;
19341;SDS011;9807;48.258;12.690;2024-02-23T05:59:13;4.57;;;2.20;;
19341;SDS011;9807;48.258;12.690;2024-02-23T06:01:39;7.60;;;2.93;;
19341;SDS011;9807;48.258;12.690;2024-02-23T06:04:05;8.60;;;7.47;;
19341;SDS011;9807;48.258;12.690;2024-02-23T06:06:30;6.37;;;3.50;;
19341;SDS011;9807;48.258;12.690;2024-02-23T06:08:56;3.83;;;2.00;;
19341;SDS011;9807;48.258;12.690;2024-02-23T06:11:22;1.50;;;1.40;;
19341;SDS011;9807;48.258;12.690;2024-02-23T06:13:47;2.53;;;1.50;;
19341;SDS011;9807;48.258;12.690;2024-02-23T06:16:13;1.43;;;0.97;;
19341;SDS011;9807;48.258;12.690;2024-02-23T06:18:39;4.77;;;1.50;;
19341;SDS011;9807;48.258;12.690;2024-02-23T06:21:15;2.43;;;1.53;;
19341;SDS011;9807;48.258;12.690;2024-02-23T06:23:42;4.80;;;1.20;;
19341;SDS011;9807;48.258;12.690;2024-02-23T06:26:09;2.57;;;1.43;;
19341;SDS011;9807;48.258;12.690;2024-02-23T06:28:35;2.50;;;0.80;;
19341;SDS011;9807;48.258;12.690;2024-02-23T06:31:04;0.70;;;0.70;;
19341;SDS011;9807;48.258;12.690;2024-02-23T06:33:33;1.70;;;0.63;;
19341;SDS011;9807;48.258;12.690;2024-02-23T06:35:59;1.20;;;0.60;;
19341;SDS011;9807;48.258;12.690;2024-02-23T06:38:25;1.27;;;0.73;;
19341;SDS011;9807;48.258;12.690;2024-02-23T06:40:52;1.10;;;0.60;;
19341;SDS011;9807;48.258;12.690;2024-02-23T06:43:18;0.60;;;0.60;;
19341;SDS011;9807;48.258;12.690;2024-02-23T06:45:44;8.20;;;3.80;;
19341;SDS011;9807;48.258;12.690;2024-02-23T06:48:10;2.27;;;1.00;;
19341;SDS011;9807;48.258;12.690;2024-02-23T06:50:35;1.07;;;0.60;;
19341;SDS011;9807;48.258;12.690;2024-02-23T06:53:01;1.43;;;0.60;;
19341;SDS011;9807;48.258;12.690;2024-02-23T06:55:27;1.40;;;0.50;;
19341;SDS011;9807;48.258;12.690;2024-02-23T06:57:53;2.10;;;0.50;;
19341;SDS011;9807;48.258;12.690;2024-02-23T07:00:20;0.97;;;0.50;;
19341;SDS011;9807;48.258;12.690;2024-02-23T07:02:49;1.30;;;0.50;;
19341;SDS011;9807;48.258;12.690;2024-02-23T07:05:14;0.43;;;0.40;;
19341;SDS011;9807;48.258;12.690;2024-02-23T07:07:40;0.40;;;0.40;;
19341;SDS011;9807;48.258;12.690;2024-02-23T07:10:06;2.00;;;0.57;;
19341;SDS011;9807;48.258;12.690;2024-02-23T07:12:33;1.90;;;0.60;;
19341;SDS011;9807;48.258;12.690;2024-02-23T07:14:59;1.37;;;0.50;;
19341;SDS011;9807;48.258;12.690;2024-02-23T07:17:25;1.00;;;0.47;;
19341;SDS011;9807;48.258;12.690;2024-02-23T07:19:51;1.37;;;0.60;;
19341;SDS011;9807;48.258;12.690;2024-02-23T07:22:18;2.53;;;0.60;;
19341;SDS011;9807;48.258;12.690;2024-02-23T07:24:44;1.70;;;0.60;;
19341;SDS011;9807;48.258;12.690;2024-02-23T07:27:09;1.03;;;0.60;;
19341;SDS011;9807;48.258;12.690;2024-02-23T07:29:35;0.50;;;0.50;;
19341;SDS011;9807;48.258;12.690;2024-02-23T07:32:01;0.50;;;0.50;;
19341;SDS011;9807;48.258;12.690;2024-02-23T07:34:27;1.63;;;0.70;;
19341;SDS011;9807;48.258;12.690;2024-02-23T07:36:54;1.30;;;0.60;;
19341;SDS011;9807;48.258;12.690;2024-02-23T07:39:20;0.80;;;0.67;;
19341;SDS011;9807;48.258;12.690;2024-02-23T07:41:46;0.60;;;0.60;;
19341;SDS011;9807;48.258;12.690;2024-02-23T07:44:13;0.90;;;0.70;;
19341;SDS011;9807;48.258;12.690;2024-02-23T07:46:38;0.93;;;0.80;;
19341;SDS011;9807;48.258;12.690;2024-02-23T07:49:04;0.63;;;0.60;;
19341;SDS011;9807;48.258;12.690;2024-02-23T07:51:31;0.83;;;0.70;;
19341;SDS011;9807;48.258;12.690;2024-02-23T07:53:57;0.83;;;0.60;;
19341;SDS011;9807;48.258;12.690;2024-02-23T07:56:24;1.27;;;0.60;;
19341;SDS011;9807;48.258;12.690;2024-02-23T07:58:50;0.70;;;0.70;;
19341;SDS011;9807;48.258;12.690;2024-02-23T08:01:16;2.03;;;1.20;;
19341;SDS011;9807;48.258;12.690;2024-02-23T08:03:46;1.60;;;1.00;;
19341;SDS011;9807;48.258;12.690;2024-02-23T08:06:11;1.10;;;0.80;;
19341;SDS011;9807;48.258;12.690;2024-02-23T08:08:38;3.53;;;1.30;;
19341;SDS011;9807;48.258;12.690;2024-02-23T08:11:04;1.37;;;1.00;;
19341;SDS011;9807;48.258;12.690;2024-02-23T08:13:30;4.20;;;1.40;;
19341;SDS011;9807;48.258;12.690;2024-02-23T08:15:59;2.40;;;1.50;;
19341;SDS011;9807;48.258;12.690;2024-02-23T08:18:25;3.60;;;1.30;;
19341;SDS011;9807;48.258;12.690;2024-02-23T08:20:51;2.47;;;0.83;;
19341;SDS011;9807;48.258;12.690;2024-02-23T08:23:17;1.80;;;0.77;;
19341;SDS011;9807;48.258;12.690;2024-02-23T08:25:44;2.57;;;1.10;;
19341;SDS011;9807;48.258;12.690;2024-02-23T08:28:10;0.83;;;0.83;;
19341;SDS011;9807;48.258;12.690;2024-02-23T08:30:35;1.43;;;0.80;;
19341;SDS011;9807;48.258;12.690;2024-02-23T08:33:01;0.83;;;0.70;;
19341;SDS011;9807;48.258;12.690;2024-02-23T08:35:27;0.50;;;0.50;;
19341;SDS011;9807;48.258;12.690;2024-02-23T08:37:53;1.10;;;0.73;;
19341;SDS011;9807;48.258;12.690;2024-02-23T08:40:19;1.60;;;0.70;;
19341;SDS011;9807;48.258;12.690;2024-02-23T08:42:45;0.73;;;0.70;;
19341;SDS011;9807;48.258;12.690;2024-02-23T08:45:12;3.70;;;0.70;;
19341;SDS011;9807;48.258;12.690;2024-02-23T08:47:38;2.00;;;0.70;;
19341;SDS011;9807;48.258;12.690;2024-02-23T08:50:05;1.00;;;0.90;;
19341;SDS011;9807;48.258;12.690;2024-02-23T08:52:31;0.57;;;0.50;;
19341;SDS011;9807;48.258;12.690;2024-02-23T08:54:57;2.13;;;0.77;;
19341;SDS011;9807;48.258;12.690;2024-02-23T08:57:23;3.27;;;0.70;;
19341;SDS011;9807;48.258;12.690;2024-02-23T08:59:49;0.80;;;0.60;;
19341;SDS011;9807;48.258;12.690;2024-02-23T09:02:14;2.53;;;0.60;;
19341;SDS011;9807;48.258;12.690;2024-02-23T09:04:40;1.17;;;0.50;;
19341;SDS011;9807;48.258;12.690;2024-02-23T09:07:06;0.60;;;0.43;;
19341;SDS011;9807;48.258;12.690;2024-02-23T09:09:32;1.27;;;0.60;;
19341;SDS011;9807;48.258;12.690;2024-02-23T09:11:57;0.93;;;0.70;;
19341;SDS011;9807;48.258;12.690;2024-02-23T09:14:25;1.80;;;0.60;;
19341;SDS011;9807;48.258;12.690;2024-02-23T09:16:51;2.97;;;0.73;;
19341;SDS011;9807;48.258;12.690;2024-02-23T09:19:18;0.70;;;0.50;;
19341;SDS011;9807;48.258;12.690;2024-02-23T09:21:44;2.17;;;0.60;;
19341;SDS011;9807;48.258;12.690;2024-02-23T09:24:10;0.60;;;0.60;;
19341;SDS011;9807;48.258;12.690;2024-02-23T09:26:36;1.53;;;0.50;;
19341;SDS011;9807;48.258;12.690;2024-02-23T09:29:02;3.33;;;0.70;;
19341;SDS011;9807;48.258;12.690;2024-02-23T09:31:27;1.37;;;0.63;;
19341;SDS011;9807;48.258;12.690;2024-02-23T09:33:54;0.53;;;0.50;;
19341;SDS011;9807;48.258;12.690;2024-02-23T09:36:20;1.40;;;0.60;;
19341;SDS011;9807;48.258;12.690;2024-02-23T09:38:46;2.10;;;1.23;;
19341;SDS011;9807;48.258;12.690;2024-02-23T09:41:20;3.83;;;0.70;;
19341;SDS011;9807;48.258;12.690;2024-02-23T09:43:47;0.57;;;0.50;;
19341;SDS011;9807;48.258;12.690;2024-02-23T09:46:17;1.17;;;0.60;;
19341;SDS011;9807;48.258;12.690;2024-02-23T09:48:43;2.03;;;0.70;;
19341;SDS011;9807;48.258;12.690;2024-02-23T09:51:10;1.53;;;0.60;;
19341;SDS011;9807;48.258;12.690;2024-02-23T09:53:39;2.47;;;0.40;;
19341;SDS011;9807;48.258;12.690;2024-02-23T09:56:09;1.30;;;0.80;;
19341;SDS011;9807;48.258;12.690;2024-02-23T09:58:36;0.87;;;0.50;;
19341;SDS011;9807;48.258;12.690;2024-02-23T10:01:02;3.70;;;0.60;;
19341;SDS011;9807;48.258;12.690;2024-02-23T10:03:29;2.73;;;0.80;;
19341;SDS011;9807;48.258;12.690;2024-02-23T10:06:01;0.60;;;0.60;;
19341;SDS011;9807;48.258;12.690;2024-02-23T10:08:27;3.00;;;0.70;;
19341;SDS011;9807;48.258;12.690;2024-02-23T10:10:54;0.93;;;0.63;;
19341;SDS011;9807;48.258;12.690;2024-02-23T10:13:21;0.50;;;0.50;;
19341;SDS011;9807;48.258;12.690;2024-02-23T10:15:49;0.60;;;0.60;;
19341;SDS011;9807;48.258;12.690;2024-02-23T10:18:16;0.83;;;0.80;;
19341;SDS011;9807;48.258;12.690;2024-02-23T10:20:41;4.03;;;0.60;;
19341;SDS011;9807;48.258;12.690;2024-02-23T10:23:08;2.03;;;0.80;;
19341;SDS011;9807;48.258;12.690;2024-02-23T10:39:38;1.27;;;0.80;;
19341;SDS011;9807;48.258;12.690;2024-02-23T10:42:04;2.73;;;1.33;;
19341;SDS011;9807;48.258;12.690;2024-02-23T10:44:37;1.73;;;1.40;;
19341;SDS011;9807;48.258;12.690;2024-02-23T10:47:04;3.07;;;1.00;;
19341;SDS011;9807;48.258;12.690;2024-02-23T10:49:34;3.17;;;1.23;;
19341;SDS011;9807;48.258;12.690;2024-02-23T10:52:02;1.83;;;1.23;;
19341;SDS011;9807;48.258;12.690;2024-02-23T10:54:28;1.97;;;0.80;;
19341;SDS011;9807;48.258;12.690;2024-02-23T10:56:56;0.97;;;0.63;;
19341;SDS011;9807;48.258;12.690;2024-02-23T10:59:22;3.43;;;1.00;;
19341;SDS011;9807;48.258;12.690;2024-02-23T11:01:49;2.23;;;1.00;;
19341;SDS011;9807;48.258;12.690;2024-02-23T11:04:18;0.97;;;0.83;;
19341;SDS011;9807;48.258;12.690;2024-02-23T11:06:52;1.07;;;0.80;;
19341;SDS011;9807;48.258;12.690;2024-02-23T11:09:23;3.50;;;0.90;;
19341;SDS011;9807;48.258;12.690;2024-02-23T11:11:53;3.47;;;1.30;;
19341;SDS011;9807;48.258;12.690;2024-02-23T11:14:29;3.93;;;1.50;;
19341;SDS011;9807;48.258;12.690;2024-02-23T11:17:00;1.43;;;0.80;;
19341;SDS011;9807;48.258;12.690;2024-02-23T11:19:36;0.90;;;0.90;;
19341;SDS011;9807;48.258;12.690;2024-02-23T11:22:04;1.87;;;0.90;;
19341;SDS011;9807;48.258;12.690;2024-02-23T11:24:41;2.77;;;1.00;;
19341;SDS011;9807;48.258;12.690;2024-02-23T11:27:13;2.90;;;1.00;;
19341;SDS011;9807;48.258;12.690;2024-02-23T11:29:42;4.43;;;1.20;;
19341;SDS011;9807;48.258;12.690;2024-02-23T11:32:15;2.17;;;1.00;;
19341;SDS011;9807;48.258;12.690;2024-02-23T11:34:42;1.77;;;0.97;;
19341;SDS011;9807;48.258;12.690;2024-02-23T11:37:20;4.83;;;1.00;;
19341;SDS011;9807;48.258;12.690;2024-02-23T11:39:47;1.87;;;0.90;;
19341;SDS011;9807;48.258;12.690;2024-02-23T11:42:13;2.83;;;1.13;;
19341;SDS011;9807;48.258;12.690;2024-02-23T11:44:40;1.67;;;0.83;;
19341;SDS011;9807;48.258;12.690;2024-02-23T11:47:06;2.87;;;1.00;;
19341;SDS011;9807;48.258;12.690;2024-02-23T11:49:32;0.67;;;0.67;;
19341;SDS011;9807;48.258;12.690;2024-02-23T11:51:58;2.73;;;1.17;;
19341;SDS011;9807;48.258;12.690;2024-02-23T11:54:24;0.77;;;0.63;;
19341;SDS011;9807;48.258;12.690;2024-02-23T11:56:50;1.53;;;0.73;;
19341;SDS011;9807;48.258;12.690;2024-02-23T11:59:18;2.40;;;0.80;;
19341;SDS011;9807;48.258;12.690;2024-02-23T12:01:48;2.57;;;0.87;;
19341;SDS011;9807;48.258;12.690;2024-02-23T12:04:15;5.40;;;0.73;;
19341;SDS011;9807;48.258;12.690;2024-02-23T12:06:41;2.70;;;0.80;;
19341;SDS011;9807;48.258;12.690;2024-02-23T12:09:07;3.97;;;0.70;;
19341;SDS011;9807;48.258;12.690;2024-02-23T12:11:37;2.37;;;0.83;;
19341;SDS011;9807;48.258;12.690;2024-02-23T12:14:03;2.30;;;0.70;;
19341;SDS011;9807;48.258;12.690;2024-02-23T12:16:33;0.60;;;0.60;;
19341;SDS011;9807;48.258;12.690;2024-02-23T12:19:01;0.80;;;0.77;;
19341;SDS011;9807;48.258;12.690;2024-02-23T12:21:27;1.93;;;0.80;;
19341;SDS011;9807;48.258;12.690;2024-02-23T12:23:53;1.70;;;0.83;;
19341;SDS011;9807;48.258;12.690;2024-02-23T12:26:20;2.33;;;0.80;;
19341;SDS011;9807;48.258;12.690;2024-02-23T12:28:46;1.70;;;0.80;;
19341;SDS011;9807;48.258;12.690;2024-02-23T12:31:12;2.63;;;0.90;;
19341;SDS011;9807;48.258;12.690;2024-02-23T12:33:38;1.47;;;0.83;;
19341;SDS011;9807;48.258;12.690;2024-02-23T12:36:05;0.97;;;0.60;;
19341;SDS011;9807;48.258;12.690;2024-02-23T12:38:32;4.43;;;1.00;;
19341;SDS011;9807;48.258;12.690;2024-02-23T12:40:59;3.67;;;0.90;;
19341;SDS011;9807;48.258;12.690;2024-02-23T12:43:26;2.27;;;1.47;;
19341;SDS011;9807;48.258;12.690;2024-02-23T12:45:52;4.27;;;0.90;;
19341;SDS011;9807;48.258;12.690;2024-02-23T12:48:20;3.17;;;0.83;;
19341;SDS011;9807;48.258;12.690;2024-02-23T12:50:46;1.63;;;0.67;;
19341;SDS011;9807;48.258;12.690;2024-02-23T12:53:31;1.70;;;0.80;;
19341;SDS011;9807;48.258;12.690;2024-02-23T12:56:05;4.30;;;0.90;;
19341;SDS011;9807;48.258;12.690;2024-02-23T12:58:33;1.70;;;0.77;;
19341;SDS011;9807;48.258;12.690;2024-02-23T13:01:06;1.07;;;0.70;;
19341;SDS011;9807;48.258;12.690;2024-02-23T13:03:33;2.37;;;0.80;;
19341;SDS011;9807;48.258;12.690;2024-02-23T13:05:59;4.10;;;1.20;;
19341;SDS011;9807;48.258;12.690;2024-02-23T13:08:25;3.57;;;0.80;;
19341;SDS011;9807;48.258;12.690;2024-02-23T13:10:51;2.80;;;1.07;;
19341;SDS011;9807;48.258;12.690;2024-02-23T13:13:18;4.33;;;0.77;;
19341;SDS011;9807;48.258;12.690;2024-02-23T13:15:44;3.37;;;0.70;;
19341;SDS011;9807;48.258;12.690;2024-02-23T13:18:10;2.50;;;0.70;;
19341;SDS011;9807;48.258;12.690;2024-02-23T13:20:36;2.57;;;0.70;;
19341;SDS011;9807;48.258;12.690;2024-02-23T13:23:03;1.20;;;0.83;;
19341;SDS011;9807;48.258;12.690;2024-02-23T13:25:29;2.97;;;0.90;;
19341;SDS011;9807;48.258;12.690;2024-02-23T13:27:55;2.77;;;0.70;;
19341;SDS011;9807;48.258;12.690;2024-02-23T13:30:21;2.80;;;1.07;;
19341;SDS011;9807;48.258;12.690;2024-02-23T13:32:46;1.00;;;0.80;;
19341;SDS011;9807;48.258;12.690;2024-02-23T13:35:12;1.00;;;0.90;;
19341;SDS011;9807;48.258;12.690;2024-02-23T13:37:39;1.60;;;0.90;;
19341;SDS011;9807;48.258;12.690;2024-02-23T13:40:08;3.87;;;1.30;;
19341;SDS011;9807;48.258;12.690;2024-02-23T13:42:36;2.83;;;1.10;;
19341;SDS011;9807;48.258;12.690;2024-02-23T13:45:06;3.13;;;1.20;;
19341;SDS011;9807;48.258;12.690;2024-02-23T13:47:33;3.13;;;1.10;;
19341;SDS011;9807;48.258;12.690;2024-02-23T13:50:02;2.10;;;1.30;;
19341;SDS011;9807;48.258;12.690;2024-02-23T13:52:28;1.20;;;1.10;;
19341;SDS011;9807;48.258;12.690;2024-02-23T13:54:54;1.50;;;1.00;;
19341;SDS011;9807;48.258;12.690;2024-02-23T13:57:20;1.60;;;1.17;;
19341;SDS011;9807;48.258;12.690;2024-02-23T13:59:47;2.43;;;1.20;;
19341;SDS011;9807;48.258;12.690;2024-02-23T14:02:13;2.50;;;1.10;;
19341;SDS011;9807;48.258;12.690;2024-02-23T14:04:39;4.10;;;1.10;;
19341;SDS011;9807;48.258;12.690;2024-02-23T14:07:05;2.33;;;1.30;;
19341;SDS011;9807;48.258;12.690;2024-02-23T14:09:31;2.70;;;1.57;;
19341;SDS011;9807;48.258;12.690;2024-02-23T14:11:57;2.60;;;1.30;;
19341;SDS011;9807;48.258;12.690;2024-02-23T14:14:23;1.83;;;1.10;;
19341;SDS011;9807;48.258;12.690;2024-02-23T14:16:51;5.63;;;1.10;;
19341;SDS011;9807;48.258;12.690;2024-02-23T14:19:16;2.30;;;1.23;;
19341;SDS011;9807;48.258;12.690;2024-02-23T14:21:45;2.43;;;1.23;;
19341;SDS011;9807;48.258;12.690;2024-02-23T14:24:13;1.17;;;1.00;;
19341;SDS011;9807;48.258;12.690;2024-02-23T14:26:39;1.03;;;0.90;;
19341;SDS011;9807;48.258;12.690;2024-02-23T14:29:05;2.70;;;1.40;;
19341;SDS011;9807;48.258;12.690;2024-02-23T14:31:30;5.43;;;1.60;;
19341;SDS011;9807;48.258;12.690;2024-02-23T14:33:57;5.47;;;1.80;;
19341;SDS011;9807;48.258;12.690;2024-02-23T14:36:23;3.77;;;1.70;;
19341;SDS011;9807;48.258;12.690;2024-02-23T14:38:49;3.90;;;2.17;;
19341;SDS011;9807;48.258;12.690;2024-02-23T14:41:15;4.57;;;2.30;;
19341;SDS011;9807;48.258;12.690;2024-02-23T14:43:41;3.57;;;1.87;;
19341;SDS011;9807;48.258;12.690;2024-02-23T14:46:06;5.13;;;2.00;;
19341;SDS011;9807;48.258;12.690;2024-02-23T14:48:34;3.33;;;2.10;;
19341;SDS011;9807;48.258;12.690;2024-02-23T14:51:00;4.30;;;2.33;;
19341;SDS011;9807;48.258;12.690;2024-02-23T14:53:28;6.33;;;2.43;;
19341;SDS011;9807;48.258;12.690;2024-02-23T14:55:54;2.43;;;1.93;;
19341;SDS011;9807;48.258;12.690;2024-02-23T14:58:20;3.67;;;2.03;;
19341;SDS011;9807;48.258;12.690;2024-02-23T15:00:46;2.70;;;1.80;;